createdAt,value
2023-02-13T00:00:07.121Z,20.30
2023-02-13T00:02:33.583Z,19.92
2023-02-13T00:05:00.266Z,19.42
2023-02-13T00:07:26.696Z,21.42
2023-02-13T00:09:53.110Z,19.65
2023-02-13T00:12:19.585Z,20.37
2023-02-13T00:14:46.023Z,19.15
2023-02-13T00:17:12.385Z,18.35
2023-02-13T00:19:38.882Z,21.98
2023-02-13T00:22:05.502Z,20.85
2023-02-13T00:24:31.954Z,21.63
2023-02-13T00:26:58.376Z,22.15
2023-02-13T00:29:24.827Z,20.92
2023-02-13T00:31:51.336Z,20.63
2023-02-13T00:34:17.788Z,18.13
2023-02-13T00:36:44.287Z,21.23
2023-02-13T00:39:12.216Z,19.77
2023-02-13T00:41:39.340Z,18.08
2023-02-13T00:44:05.794Z,19.00
2023-02-13T00:46:32.233Z,18.80
2023-02-13T00:48:58.697Z,20.63
2023-02-13T00:51:25.139Z,18.55
2023-02-13T00:53:51.591Z,17.67
2023-02-13T00:56:18.035Z,17.42
2023-02-13T00:58:44.646Z,16.95
2023-02-13T01:01:11.115Z,15.87
2023-02-13T01:03:37.793Z,14.80
2023-02-13T01:06:04.944Z,13.52
2023-02-13T01:08:31.457Z,16.13
2023-02-13T01:10:58.643Z,15.05
2023-02-13T01:13:25.654Z,13.33
2023-02-13T01:15:52.214Z,13.68
2023-02-13T01:18:20.517Z,12.90
2023-02-13T01:21:03.069Z,13.15
2023-02-13T01:23:34.554Z,15.07
2023-02-13T01:26:03.132Z,18.43
2023-02-13T01:28:29.784Z,15.32
2023-02-13T01:30:58.216Z,14.95
2023-02-13T01:33:27.135Z,15.50
2023-02-13T01:35:53.810Z,14.43
2023-02-13T01:38:20.725Z,15.17
2023-02-13T01:40:48.752Z,13.82
2023-02-13T01:43:15.549Z,13.73
2023-02-13T01:45:44.257Z,13.50
2023-02-13T01:48:19.759Z,16.95
2023-02-13T01:50:54.477Z,15.37
2023-02-13T01:53:44.306Z,14.38
2023-02-13T01:56:28.892Z,12.13
2023-02-13T01:59:00.482Z,13.45
2023-02-13T02:01:28.578Z,12.77
2023-02-13T02:04:01.675Z,12.37
2023-02-13T02:06:35.973Z,12.82
2023-02-13T02:09:07.815Z,14.13
2023-02-13T02:12:03.237Z,12.45
2023-02-13T02:14:29.826Z,13.93
2023-02-13T02:16:57.436Z,15.03
2023-02-13T02:19:41.196Z,13.18
2023-02-13T02:22:41.402Z,16.13
2023-02-13T02:25:32.102Z,17.15
2023-02-13T02:28:13.610Z,15.95
2023-02-13T02:30:58.769Z,17.50
2023-02-13T02:33:34.417Z,17.58
2023-02-13T02:36:33.110Z,15.48
2023-02-13T02:39:02.290Z,15.80
2023-02-13T02:41:52.430Z,16.60
2023-02-13T02:44:43.513Z,13.83
2023-02-13T02:47:34.679Z,14.77
2023-02-13T02:50:12.396Z,14.85
2023-02-13T02:52:46.334Z,14.57
2023-02-13T02:55:31.309Z,18.70
2023-02-13T02:58:34.619Z,16.23
2023-02-13T03:01:21.214Z,15.80
2023-02-13T03:04:27.234Z,18.10
2023-02-13T03:06:59.493Z,16.98
2023-02-13T03:09:49.715Z,17.95
2023-02-13T03:12:41.722Z,16.60
2023-02-13T03:15:09.643Z,15.75
2023-02-13T03:17:55.267Z,18.20
2023-02-13T03:20:49.557Z,19.13
2023-02-13T03:23:19.784Z,18.48
2023-02-13T03:26:12.541Z,20.90
2023-02-13T03:29:10.707Z,30.52
2023-02-13T03:32:00.885Z,19.67
2023-02-13T03:34:52.356Z,19.25
2023-02-13T03:37:45.298Z,20.67
2023-02-13T03:40:37.828Z,20.37
2023-02-13T03:43:15.771Z,19.70
2023-02-13T03:45:53.683Z,18.90
2023-02-13T03:48:49.657Z,18.75
2023-02-13T03:51:30.987Z,21.52
2023-02-13T03:54:02.881Z,16.47
2023-02-13T03:56:50.599Z,20.13
2023-02-13T03:59:24.492Z,18.77
2023-02-13T04:01:58.947Z,20.73
2023-02-13T04:04:42.695Z,18.98
2023-02-13T04:07:29.339Z,18.00
2023-02-13T04:10:02.676Z,19.50
2023-02-13T04:12:55.786Z,18.05
2023-02-13T04:15:32.718Z,17.95
2023-02-13T04:18:13.160Z,19.75
2023-02-13T04:20:40.230Z,19.03
2023-02-13T04:23:09.317Z,21.20
2023-02-13T04:25:38.772Z,21.95
2023-02-13T04:28:06.137Z,18.13
2023-02-13T04:30:33.152Z,20.30
2023-02-13T04:32:59.598Z,22.87
2023-02-13T04:35:26.074Z,18.95
2023-02-13T04:37:52.619Z,18.00
2023-02-13T04:40:19.127Z,22.00
2023-02-13T04:42:48.347Z,20.50
2023-02-13T04:45:15.209Z,23.43
2023-02-13T04:47:42.259Z,22.15
2023-02-13T04:50:09.421Z,18.25
2023-02-13T04:52:35.856Z,19.30
2023-02-13T04:55:02.355Z,18.10
2023-02-13T04:57:28.712Z,19.70
2023-02-13T04:59:55.118Z,19.65
2023-02-13T05:02:21.610Z,22.65
2023-02-13T05:04:48.083Z,17.00
2023-02-13T05:07:14.573Z,20.08
2023-02-13T05:09:41.715Z,21.00
2023-02-13T05:12:08.500Z,20.35
2023-02-13T05:14:35.140Z,20.63
2023-02-13T05:17:01.583Z,22.15
2023-02-13T05:19:28.045Z,19.55
2023-02-13T05:22:12.976Z,16.97
2023-02-13T05:24:39.560Z,18.05
2023-02-13T05:27:06.081Z,18.83
2023-02-13T05:29:32.506Z,20.48
2023-02-13T05:31:59.945Z,19.73
2023-02-13T05:34:28.351Z,20.87
2023-02-13T05:36:55.537Z,20.02
2023-02-13T05:39:22.400Z,19.63
2023-02-13T05:41:49.544Z,19.45
2023-02-13T05:44:16.676Z,19.25
2023-02-13T05:46:44.923Z,19.20
2023-02-13T05:49:13.023Z,24.83
2023-02-13T05:51:39.482Z,20.15
2023-02-13T05:54:06.097Z,19.60
2023-02-13T05:56:32.468Z,20.33
2023-02-13T05:58:58.868Z,19.83
2023-02-13T06:01:25.396Z,18.80
2023-02-13T06:03:52.175Z,19.67
2023-02-13T06:06:18.724Z,19.63
2023-02-13T06:08:45.315Z,21.67
2023-02-13T06:11:11.760Z,19.97
2023-02-13T06:13:40.674Z,18.55
2023-02-13T06:16:11.426Z,20.08
2023-02-13T06:18:38.015Z,19.55
2023-02-13T06:21:05.348Z,16.92
2023-02-13T06:23:31.937Z,17.87
2023-02-13T06:26:02.910Z,18.65
2023-02-13T06:28:29.417Z,16.95
2023-02-13T06:30:56.417Z,17.88
2023-02-13T06:33:23.468Z,18.13
2023-02-13T06:35:50.086Z,20.80
2023-02-13T06:38:19.085Z,22.40
2023-02-13T06:40:46.843Z,25.35
2023-02-13T06:43:14.653Z,22.23
2023-02-13T06:45:41.929Z,24.27
2023-02-13T06:48:08.477Z,22.87
2023-02-13T06:50:35.076Z,24.20
2023-02-13T06:53:02.028Z,22.33
2023-02-13T06:55:28.493Z,22.85
2023-02-13T06:57:54.957Z,26.23
2023-02-13T07:00:21.910Z,41.73
2023-02-13T07:02:48.482Z,23.75
2023-02-13T07:05:15.236Z,25.13
2023-02-13T07:07:42.720Z,24.77
2023-02-13T07:10:12.988Z,22.30
2023-02-13T07:12:39.522Z,26.23
2023-02-13T07:15:06.462Z,44.33
2023-02-13T07:17:33.949Z,37.75
2023-02-13T07:20:00.497Z,28.42
2023-02-13T07:22:26.983Z,34.08
2023-02-13T07:24:53.486Z,23.53
2023-02-13T07:27:19.959Z,45.55
2023-02-13T07:29:46.510Z,39.00
2023-02-13T07:32:13.107Z,43.20
2023-02-13T07:34:44.400Z,52.05
2023-02-13T07:37:15.712Z,33.10
2023-02-13T07:39:42.211Z,49.00
2023-02-13T07:42:08.675Z,69.70
2023-02-13T07:44:35.170Z,79.63
2023-02-13T07:47:01.611Z,54.03
2023-02-13T07:49:27.996Z,91.93
2023-02-13T07:51:57.853Z,53.10
2023-02-13T07:54:24.609Z,109.70
2023-02-13T07:56:51.244Z,80.13
2023-02-13T07:59:17.660Z,75.32
2023-02-13T08:01:44.296Z,101.93
2023-02-13T08:04:10.733Z,66.65
2023-02-13T08:06:40.052Z,59.20
2023-02-13T08:09:25.120Z,84.85
2023-02-13T08:11:53.971Z,125.43
2023-02-13T08:14:25.887Z,51.47
2023-02-13T08:16:54.752Z,51.65
2023-02-13T08:19:21.270Z,47.05
2023-02-13T08:21:47.775Z,63.85
2023-02-13T08:24:14.233Z,52.95
2023-02-13T08:26:40.753Z,67.97
2023-02-13T08:29:07.588Z,59.20
2023-02-13T08:31:34.388Z,102.65
2023-02-13T08:34:00.874Z,62.80
2023-02-13T08:36:27.757Z,79.05
2023-02-13T08:38:54.430Z,72.27
2023-02-13T08:41:22.147Z,56.72
2023-02-13T08:43:50.117Z,41.38
2023-02-13T08:46:18.122Z,35.25
2023-02-13T08:48:44.977Z,53.88
2023-02-13T08:51:13.119Z,28.40
2023-02-13T08:53:40.243Z,16.52
2023-02-13T08:56:07.419Z,12.05
2023-02-13T08:58:34.437Z,10.93
2023-02-13T09:01:04.135Z,10.88
2023-02-13T09:03:30.672Z,11.70
2023-02-13T09:06:00.352Z,12.25
2023-02-13T09:08:27.587Z,11.23
2023-02-13T09:10:59.447Z,12.48
2023-02-13T09:13:26.203Z,12.23
2023-02-13T09:15:52.636Z,10.90
2023-02-13T09:18:19.022Z,11.05
2023-02-13T09:20:45.609Z,11.43
2023-02-13T09:23:12.097Z,10.30
2023-02-13T09:25:38.578Z,10.95
2023-02-13T09:28:05.192Z,11.07
2023-02-13T09:30:31.768Z,11.10
2023-02-13T09:32:58.356Z,11.63
2023-02-13T09:35:24.863Z,10.95
2023-02-13T09:37:51.379Z,12.32
2023-02-13T09:40:29.521Z,26.40
2023-02-13T09:43:11.706Z,12.50
2023-02-13T09:45:38.386Z,10.40
2023-02-13T09:48:05.998Z,11.32
2023-02-13T09:50:35.064Z,11.02
2023-02-13T09:53:04.324Z,11.07
2023-02-13T09:55:52.788Z,11.57
2023-02-13T09:58:33.650Z,8.77
2023-02-13T10:01:03.871Z,11.00
2023-02-13T10:04:11.800Z,11.40
2023-02-13T10:06:52.918Z,9.33
2023-02-13T10:09:53.226Z,10.63
2023-02-13T10:12:44.218Z,10.18
2023-02-13T10:15:16.368Z,9.55
2023-02-13T10:17:47.832Z,11.55
2023-02-13T10:20:30.936Z,19.50
2023-02-13T10:23:05.616Z,10.57
2023-02-13T10:25:46.441Z,8.80
2023-02-13T10:28:23.733Z,17.98
2023-02-13T10:30:57.055Z,9.07
2023-02-13T10:33:30.036Z,9.20
2023-02-13T10:36:09.509Z,9.90
2023-02-13T10:38:43.612Z,10.13
2023-02-13T10:41:28.534Z,9.65
2023-02-13T10:44:12.441Z,9.02
2023-02-13T10:47:16.527Z,8.90
2023-02-13T10:50:04.501Z,8.75
2023-02-13T10:52:41.499Z,8.90
2023-02-13T10:55:19.246Z,10.23
2023-02-13T10:57:57.371Z,11.23
2023-02-13T11:00:31.896Z,9.97
2023-02-13T11:02:59.717Z,9.00
2023-02-13T11:05:33.305Z,9.85
2023-02-13T11:08:00.681Z,8.90
2023-02-13T11:10:27.449Z,9.10
2023-02-13T11:12:54.213Z,10.33
2023-02-13T11:15:30.868Z,9.13
2023-02-13T11:18:11.582Z,9.45
2023-02-13T11:20:44.517Z,7.53
2023-02-13T11:23:29.555Z,9.05
2023-02-13T11:26:12.457Z,7.93
2023-02-13T11:28:48.227Z,10.13
2023-02-13T11:31:35.540Z,9.50
2023-02-13T11:34:25.349Z,9.88
2023-02-13T11:37:12.754Z,8.98
2023-02-13T11:39:41.532Z,7.77
2023-02-13T11:42:16.309Z,8.10
2023-02-13T11:44:48.898Z,8.57
2023-02-13T11:47:16.202Z,8.13
2023-02-13T11:49:47.127Z,9.18
2023-02-13T11:52:27.170Z,8.03
2023-02-13T11:54:59.675Z,8.73
2023-02-13T11:57:37.211Z,8.35
2023-02-13T12:00:29.816Z,7.65
2023-02-13T12:02:56.483Z,8.00
2023-02-13T12:05:25.841Z,7.27
2023-02-13T12:07:59.673Z,8.45
2023-02-13T12:10:29.095Z,7.30
2023-02-13T12:12:56.745Z,8.02
2023-02-13T12:15:28.363Z,8.07
2023-02-13T12:18:12.818Z,8.40
2023-02-13T12:20:54.067Z,7.95
2023-02-13T12:23:52.612Z,7.03
2023-02-13T12:26:40.990Z,7.28
2023-02-13T12:29:26.653Z,7.45
2023-02-13T12:32:14.968Z,7.07
2023-02-13T12:35:10.437Z,7.03
2023-02-13T12:38:04.062Z,8.23
2023-02-13T12:40:43.680Z,7.20
2023-02-13T12:43:29.212Z,7.18
2023-02-13T12:46:13.740Z,6.83
2023-02-13T12:48:57.302Z,8.32
2023-02-13T12:52:01.316Z,8.43
2023-02-13T12:54:38.681Z,7.22
2023-02-13T12:57:28.114Z,6.20
2023-02-13T13:00:00.100Z,7.10
2023-02-13T13:02:51.759Z,6.45
2023-02-13T13:05:24.332Z,7.40
2023-02-13T13:08:08.810Z,8.30
2023-02-13T13:11:04.419Z,7.63
2023-02-13T13:13:49.517Z,7.53
2023-02-13T13:16:32.420Z,9.88
2023-02-13T13:19:26.899Z,7.88
2023-02-13T13:22:24.112Z,7.35
2023-02-13T13:24:59.687Z,6.25
2023-02-13T13:27:32.088Z,5.00
2023-02-13T13:30:04.313Z,7.25
2023-02-13T13:32:32.923Z,7.10
2023-02-13T13:34:59.892Z,8.48
2023-02-13T13:37:42.711Z,8.70
2023-02-13T13:40:31.641Z,7.07
2023-02-13T13:43:16.623Z,7.05
2023-02-13T13:45:52.238Z,7.60
2023-02-13T13:49:03.798Z,7.80
2023-02-13T13:51:30.703Z,9.85
2023-02-13T13:54:03.095Z,6.57
2023-02-13T13:56:54.424Z,7.90
2023-02-13T13:59:53.775Z,5.50
2023-02-13T14:02:20.182Z,6.15
2023-02-13T14:05:24.467Z,5.93
2023-02-13T14:07:57.769Z,5.57
2023-02-13T14:10:50.286Z,7.05
2023-02-13T14:13:31.638Z,5.07
2023-02-13T14:15:58.601Z,4.88
2023-02-13T14:18:27.211Z,5.15
2023-02-13T14:20:56.615Z,7.53
2023-02-13T14:23:37.641Z,6.28
2023-02-13T14:26:11.909Z,6.05
2023-02-13T14:28:40.981Z,7.20
2023-02-13T14:31:16.831Z,7.47
2023-02-13T14:33:43.537Z,6.40
2023-02-13T14:36:21.858Z,7.15
2023-02-13T14:39:01.394Z,6.30
2023-02-13T14:41:43.283Z,7.25
2023-02-13T14:44:47.821Z,7.65
2023-02-13T14:47:28.493Z,8.33
2023-02-13T14:49:56.164Z,7.88
2023-02-13T14:52:27.790Z,7.85
2023-02-13T14:55:03.951Z,8.50
2023-02-13T14:57:52.176Z,6.82
2023-02-13T15:00:36.332Z,8.07
2023-02-13T15:03:13.634Z,8.13
2023-02-13T15:05:40.446Z,8.60
2023-02-13T15:08:16.174Z,7.65
2023-02-13T15:10:46.973Z,7.95
2023-02-13T15:13:20.391Z,7.83
2023-02-13T15:15:53.036Z,22.23
2023-02-13T15:18:25.957Z,6.80
2023-02-13T15:20:56.554Z,9.00
2023-02-13T15:23:26.608Z,7.35
2023-02-13T15:26:04.759Z,7.90
2023-02-13T15:28:32.049Z,6.63
2023-02-13T15:31:22.916Z,6.35
2023-02-13T15:33:51.465Z,5.90
2023-02-13T15:36:20.715Z,8.27
2023-02-13T15:38:47.362Z,8.20
2023-02-13T15:41:27.952Z,6.97
2023-02-13T15:43:58.293Z,10.50
2023-02-13T15:46:28.012Z,7.85
2023-02-13T15:48:57.253Z,6.97
2023-02-13T15:51:27.002Z,22.40
2023-02-13T15:53:55.736Z,12.32
2023-02-13T15:56:22.859Z,5.65
2023-02-13T15:58:50.446Z,5.93
2023-02-13T16:01:17.518Z,6.45
2023-02-13T16:03:47.981Z,6.20
2023-02-13T16:06:17.161Z,7.95
2023-02-13T16:08:53.514Z,10.15
2023-02-13T16:11:23.708Z,11.10
2023-02-13T16:13:56.270Z,9.73
2023-02-13T16:16:23.967Z,8.03
2023-02-13T16:18:51.603Z,7.15
2023-02-13T16:21:23.632Z,8.13
2023-02-13T16:23:56.464Z,6.53
2023-02-13T16:26:23.160Z,6.88
2023-02-13T16:28:49.687Z,6.70
2023-02-13T16:31:17.955Z,8.20
2023-02-13T16:33:45.473Z,7.07
2023-02-13T16:36:11.816Z,6.70
2023-02-13T16:38:43.746Z,6.25
2023-02-13T16:41:19.010Z,8.40
2023-02-13T16:43:53.777Z,7.28
2023-02-13T16:46:28.919Z,7.03
2023-02-13T16:48:58.453Z,6.43
2023-02-13T16:51:46.486Z,6.07
2023-02-13T16:54:25.251Z,6.33
2023-02-13T16:57:00.981Z,7.50
2023-02-13T16:59:43.099Z,8.02
2023-02-13T17:02:24.521Z,11.05
2023-02-13T17:05:02.439Z,7.05
2023-02-13T17:07:31.222Z,10.47
2023-02-13T17:09:59.115Z,5.78
2023-02-13T17:12:26.988Z,7.00
2023-02-13T17:14:53.634Z,5.97
2023-02-13T17:17:22.565Z,4.45
2023-02-13T17:19:49.824Z,5.67
2023-02-13T17:22:19.507Z,12.38
2023-02-13T17:24:45.951Z,9.20
2023-02-13T17:27:12.494Z,14.15
2023-02-13T17:29:39.126Z,10.80
2023-02-13T17:32:05.822Z,11.07
2023-02-13T17:34:32.233Z,5.97
2023-02-13T17:36:58.692Z,8.27
2023-02-13T17:39:25.381Z,8.85
2023-02-13T17:41:51.866Z,12.52
2023-02-13T17:44:18.312Z,32.60
2023-02-13T17:46:44.778Z,46.25
2023-02-13T17:49:12.296Z,40.33
2023-02-13T17:51:39.874Z,36.05
2023-02-13T17:54:06.515Z,34.30
2023-02-13T17:56:33.043Z,25.43
2023-02-13T17:58:59.617Z,16.02
2023-02-13T18:01:26.163Z,11.43
2023-02-13T18:03:52.650Z,10.57
2023-02-13T18:06:19.179Z,10.70
2023-02-13T18:08:45.688Z,11.10
2023-02-13T18:11:12.559Z,11.52
2023-02-13T18:13:40.721Z,14.73
2023-02-13T18:16:09.038Z,12.65
2023-02-13T18:18:35.516Z,42.72
2023-02-13T18:21:01.913Z,9.67
2023-02-13T18:23:28.358Z,9.48
2023-02-13T18:26:04.180Z,6.95
2023-02-13T18:28:30.776Z,8.98
2023-02-13T18:30:57.894Z,8.80
2023-02-13T18:33:24.573Z,9.67
2023-02-13T18:35:51.054Z,8.80
2023-02-13T18:38:17.606Z,10.20
2023-02-13T18:40:44.136Z,8.27
2023-02-13T18:43:10.574Z,11.98
2023-02-13T18:45:37.087Z,10.17
2023-02-13T18:48:03.576Z,16.05
2023-02-13T18:50:30.094Z,9.32
2023-02-13T18:52:56.540Z,11.50
2023-02-13T18:55:23.006Z,12.32
2023-02-13T18:57:52.590Z,15.97
2023-02-13T19:00:22.162Z,15.48
2023-02-13T19:02:48.598Z,16.92
2023-02-13T19:05:17.043Z,16.25
2023-02-13T19:07:43.610Z,15.32
2023-02-13T19:10:10.643Z,13.00
2023-02-13T19:12:37.358Z,11.50
2023-02-13T19:15:04.942Z,13.40
2023-02-13T19:17:31.457Z,12.50
2023-02-13T19:19:57.937Z,12.88
2023-02-13T19:22:24.463Z,14.93
2023-02-13T19:24:50.900Z,19.90
2023-02-13T19:27:17.642Z,21.17
2023-02-13T19:29:44.120Z,27.85
2023-02-13T19:32:10.656Z,26.38
2023-02-13T19:34:37.389Z,20.77
2023-02-13T19:37:03.802Z,20.90
2023-02-13T19:39:30.207Z,20.20
2023-02-13T19:41:56.879Z,23.65
2023-02-13T19:44:23.413Z,19.60
2023-02-13T19:46:49.878Z,18.27
2023-02-13T19:49:16.708Z,29.15
2023-02-13T19:51:46.025Z,54.97
2023-02-13T19:54:12.918Z,33.28
2023-02-13T19:56:40.642Z,29.63
2023-02-13T19:59:08.916Z,24.97
2023-02-13T20:01:35.648Z,18.08
2023-02-13T20:04:02.134Z,22.33
2023-02-13T20:06:35.778Z,19.10
2023-02-13T20:09:06.286Z,26.05
2023-02-13T20:11:32.716Z,26.70
2023-02-13T20:14:04.758Z,25.38
2023-02-13T20:16:36.861Z,19.75
2023-02-13T20:19:06.977Z,21.75
2023-02-13T20:21:34.364Z,15.80
2023-02-13T20:24:02.936Z,18.70
2023-02-13T20:26:29.522Z,19.00
2023-02-13T20:28:58.447Z,19.50
2023-02-13T20:31:25.320Z,17.77
2023-02-13T20:33:52.495Z,14.63
2023-02-13T20:36:25.216Z,13.50
2023-02-13T20:38:54.424Z,12.45
2023-02-13T20:41:26.124Z,14.25
2023-02-13T20:43:53.220Z,19.05
2023-02-13T20:46:19.701Z,20.23
2023-02-13T20:48:47.859Z,18.53
2023-02-13T20:51:16.608Z,19.27
2023-02-13T20:53:44.433Z,20.48
2023-02-13T20:56:17.102Z,16.45
2023-02-13T20:58:45.455Z,13.45
2023-02-13T21:01:23.650Z,15.30
2023-02-13T21:03:54.896Z,15.23
2023-02-13T21:06:23.411Z,12.73
2023-02-13T21:08:50.552Z,12.60
2023-02-13T21:11:18.576Z,14.20
2023-02-13T21:13:45.192Z,12.53
2023-02-13T21:16:15.652Z,10.70
2023-02-13T21:18:42.799Z,13.35
2023-02-13T21:21:11.425Z,14.50
2023-02-13T21:23:38.241Z,11.52
2023-02-13T21:26:08.303Z,15.23
2023-02-13T21:28:35.451Z,13.93
2023-02-13T21:31:29.054Z,11.50
2023-02-13T21:34:10.026Z,12.95
2023-02-13T21:36:37.156Z,33.72
2023-02-13T21:39:06.055Z,15.17
2023-02-13T21:41:32.663Z,11.93
2023-02-13T21:43:59.083Z,12.95
2023-02-13T21:46:27.948Z,16.60
2023-02-13T21:49:00.136Z,13.82
2023-02-13T21:51:29.137Z,13.03
2023-02-13T21:53:56.052Z,14.15
2023-02-13T21:56:28.404Z,12.48
2023-02-13T21:58:56.506Z,17.17
2023-02-13T22:01:34.367Z,13.60
2023-02-13T22:04:03.609Z,14.27
2023-02-13T22:06:32.591Z,13.60
2023-02-13T22:09:05.761Z,16.27
2023-02-13T22:11:32.327Z,14.35
2023-02-13T22:14:04.249Z,13.70
2023-02-13T22:16:35.814Z,13.70
2023-02-13T22:19:04.086Z,15.02
2023-02-13T22:21:32.377Z,13.32
2023-02-13T22:23:59.186Z,16.92
2023-02-13T22:26:45.321Z,14.48
2023-02-13T22:29:14.312Z,12.13
2023-02-13T22:31:41.764Z,20.95
2023-02-13T22:34:10.019Z,14.90
2023-02-13T22:36:40.853Z,13.25
2023-02-13T22:39:09.596Z,15.98
2023-02-13T22:41:36.399Z,13.73
2023-02-13T22:44:03.354Z,14.43
2023-02-13T22:46:31.871Z,18.70
2023-02-13T22:48:59.670Z,14.35
2023-02-13T22:51:31.882Z,15.52
2023-02-13T22:53:59.389Z,16.23
2023-02-13T22:56:27.507Z,15.05
2023-02-13T22:58:54.042Z,14.18
2023-02-13T23:01:23.133Z,19.88
2023-02-13T23:03:49.909Z,15.05
2023-02-13T23:06:17.345Z,13.80
2023-02-13T23:08:44.615Z,12.70
2023-02-13T23:11:32.495Z,19.05
2023-02-13T23:13:59.578Z,13.93
2023-02-13T23:16:26.686Z,19.35
2023-02-13T23:18:57.702Z,15.83
2023-02-13T23:21:25.077Z,16.73
2023-02-13T23:23:51.896Z,14.60
2023-02-13T23:26:18.473Z,17.45
2023-02-13T23:28:44.882Z,15.38
2023-02-13T23:31:11.668Z,13.73
2023-02-13T23:33:38.323Z,15.98
2023-02-13T23:36:05.128Z,16.02
2023-02-13T23:38:31.575Z,16.70
2023-02-13T23:41:05.378Z,29.50
2023-02-13T23:43:31.796Z,24.83
2023-02-13T23:45:58.278Z,24.17
2023-02-13T23:48:24.841Z,21.67
2023-02-13T23:50:53.088Z,18.55
2023-02-13T23:53:19.609Z,21.23
2023-02-13T23:55:46.293Z,19.07
2023-02-13T23:58:12.689Z,17.85
